Sembach, Germany

1:58 PM CEST on August 29, 2014 (GMT +0200)
Rodenbach Weather! | Change Station
CLOSE
Current Station
Personal Weather Station
Location: Rodenbach, RHINELAND-PALATINATE
Elevation: 803 ft
Nearby Weather Stations

Elev 803 ft 49.48 °N, 7.66 °E | Updated 3 minutes ago

Mostly Cloudy
Mostly Cloudy
71.9 °F
Feels Like 76 °F
N
2.0
Wind Variable Wind from West
Gusts 8.0 mph

Today
High -- | Low -- °F
--% Chance of Precip.
Yesterday
High -- | Low -- °F
Precip. -- in
6:39 AM 8:18 PM
Waxing Crescent, 14% visible
Pressure 30.04 in
Visibility 6.2 miles
Clouds Scattered Clouds 3200 ft
Mostly Cloudy 3900 ft
Mostly Cloudy 4900 ft
Heat Index 76 °F
Dew Point 58 °F
Humidity 62%
Rainfall 0.00 in
Snow Depth Not available.
UV 4 out of 12
Pollen Not available.
Air Quality Not available.
Flu Activity Not available.
METAR EDFM 291150Z VRB05KT 9999 SCT032 BKN039 BKN049 23/14 Q1017

More Conditions Fewer Conditions

Pressure 30.04 in
Visibility 6.2 miles
Clouds Scattered Clouds 3200 ft
Mostly Cloudy 3900 ft
Mostly Cloudy 4900 ft
Heat Index 76 °F
Dew Point 58 °F
Humidity 62%
Rainfall 0.00 in
Snow Depth Not available.
UV 4 out of 12
Pollen Not available.
Air Quality Not available.
Flu Activity Not available.
METAR EDFM 291150Z VRB05KT 9999 SCT032 BKN039 BKN049 23/14 Q1017

More Conditions Fewer Conditions

10-Day Weather Forecast

Almanac

Astronomy

Aug. 29, 2014 Rise Set
Actual Time 6:39 AM CEST 8:18 PM CEST
Civil Twilight 6:05 AM CEST 8:51 PM CEST
Nautical Twilight 5:24 AM CEST 9:32 PM CEST
Astronomical Twilight 4:39 AM CEST 10:17 PM CEST
Moon 10:37 AM CEST 9:41 PM CEST
Length of Visible Light 14h 45m
Length of Day
13h 38m
Tomorrow will be 3m 31s shorter.
Waxing Crescent, 14% of the Moon is Illuminated
Today
Waxing Crescent
Sep 2
First Quarter
Sep 8
Full
Sep 15
Last Quarter
Sep 24
New

Yesterday's Extremes

Country Highs Country Lows

Community

WunderPhotos

Upload Photos

1,748,216 photos uploaded!

Nearby

Snow Depth

Not available.

Earthquake Activity

City Distance Mag. Time & Date
No recent earthquake activity has been reported nearby.
Minimum magnitude displayed is 2.5.

Coastal Water Temperatures

Place Temperature
No Stations Reporting

Nearby Weather Stations